Pleasantville, New York
Current Conditions -  °F | °C
As of 3:56 AM on Saturday 22 Nov 2014 (Local Time) from KHPN Reporting Station
Clear Clear  
Wind Chill: 24°   Ceiling: Unl
Heat Index: 24°   Visibility: 10mi
Dew Point: 10°   Wind: 3mph
Humidity: 55%   Direction: 270°W
Pressure: 30.44"   Gusts: NA
Location:  41.13°N, 73.79°W
Report Text: KHPN 220856Z AUTO 27003KT 10SM CLR M04/M12 A3044 RMK AO2 SLP319 T10441122 56008
Loading
Personal Weather Stations






























Interactive Weather Map New forecast layout! Learn more

10-Day Weather Forecast

Advertisements
Track Severe Weather on mobile